Tuskahoma, Oklahoma
Current Conditions -  °F | °C
As of 11:53 AM on Tuesday 21 Oct 2014 (Local Time) from KMLC Reporting Station
Broken Clouds Broken Clouds  
Wind Chill: 24°   Ceiling: 4200
Heat Index: 24°   Visibility: 10mi
Dew Point: 16°   Wind: 0mph
Humidity: 60%   Direction: NA
Pressure: 30.13"   Gusts: NA
Location:  34.62°N, 95.28°W
Report Text: KMLC 211653Z AUTO 00000KT 10SM BKN042 24/16 A3013 RMK AO2 SLP195 T02390156
Loading
Personal Weather Stations






























Interactive Weather Map
Tropical Storm Tracking
New forecast layout! Learn more

10-Day Weather Forecast

Advertisements
Track Severe Weather on mobile